Time;durP1;ratioP1;P1;durP2;ratioP2;P2;SDS_P1;SDS_P2;PMS_P1;PMS_P2;Temp;Humidity;BMP_temperature;BMP_pressure;BME280_temperature;BME280_humidity;BME280_pressure;Samples;Min_cycle;Max_cycle;Signal;HPM_P1;HPM_P2
2022/10/23 00:00:33;;;;;;;;;3.33;1.33;;;;;19.91;62.97;100510.16;2110191;27;45770;-74
2022/10/23 00:01:39;;;;;;;;;2.67;2.67;;;;;19.90;62.83;100506.63;2106740;27;46691;-72
2022/10/23 00:02:39;;;;;;;;;1.50;1.00;;;;;19.88;62.96;100497.78;2106982;27;46912;-74
2022/10/23 00:03:40;;;;;;;;;4.00;2.00;;;;;19.89;62.87;100495.94;2113391;27;45440;-73
2022/10/23 00:04:41;;;;;;;;;3.00;1.67;;;;;19.89;62.57;100495.94;2117876;27;46305;-73
2022/10/23 00:05:41;;;;;;;;;3.67;3.67;;;;;19.90;62.43;100493.16;2113360;27;45268;-74
2022/10/23 00:06:42;;;;;;;;;3.33;2.67;;;;;19.91;63.06;100491.31;2111633;27;45864;-73
2022/10/23 00:07:42;;;;;;;;;3.00;2.25;;;;;19.90;62.45;100489.59;2113407;27;46231;-73
2022/10/23 00:08:45;;;;;;;;;4.00;3.00;;;;;19.91;62.29;100496.72;2106154;27;46782;-71
2022/10/23 00:09:45;;;;;;;;;2.75;2.75;;;;;19.91;62.58;100488.63;2116525;27;46112;-73
2022/10/23 00:10:46;;;;;;;;;3.33;3.33;;;;;19.91;62.66;100477.84;2122781;27;45565;-73
2022/10/23 00:11:48;;;;;;;;;2.33;2.33;;;;;19.89;62.56;100483.34;2116246;27;46256;-73
2022/10/23 00:12:50;;;;;;;;;2.75;2.75;;;;;19.91;62.69;100477.84;2115198;27;47087;-72
2022/10/23 00:13:52;;;;;;;;;3.00;3.00;;;;;19.91;62.81;100469.78;2112942;27;45663;-73
2022/10/23 00:14:53;;;;;;;;;4.00;3.25;;;;;19.91;62.35;100473.34;2112119;27;46409;-72
2022/10/23 00:15:53;;;;;;;;;3.00;3.00;;;;;19.92;62.88;100479.56;2121869;27;46287;-73
2022/10/23 00:16:53;;;;;;;;;0.00;0.00;;;;;19.92;62.90;100475.06;2113985;27;45473;-75
2022/10/23 00:17:54;;;;;;;;;2.00;2.00;;;;;19.93;62.73;100475.91;2116193;27;45530;-72
2022/10/23 00:18:54;;;;;;;;;3.33;2.00;;;;;19.92;62.72;100479.56;2122558;27;46597;-73
2022/10/23 00:19:55;;;;;;;;;2.00;2.00;;;;;19.91;62.11;100475.16;2109638;27;45348;-73
2022/10/23 00:20:55;;;;;;;;;2.00;2.00;;;;;19.91;62.09;100473.34;2111770;27;46437;-73
2022/10/23 00:21:56;;;;;;;;;2.00;2.00;;;;;19.90;62.28;100474.28;2122769;27;45713;-71
2022/10/23 00:22:56;;;;;;;;;2.00;2.00;;;;;19.91;62.29;100469.78;2117597;27;46645;-73
2022/10/23 00:23:56;;;;;;;;;3.33;2.00;;;;;19.90;62.50;100468.91;2122251;27;45699;-73
2022/10/23 00:24:57;;;;;;;;;3.00;3.00;;;;;19.91;62.43;100469.78;2120442;27;46507;-72
2022/10/23 00:25:57;;;;;;;;;2.00;2.00;;;;;19.89;62.48;100463.63;2122427;27;45000;-72
2022/10/23 00:26:57;;;;;;;;;3.00;1.67;;;;;19.87;62.68;100465.56;2113063;27;46393;-74
2022/10/23 00:27:58;;;;;;;;;3.33;2.33;;;;;19.89;62.14;100469.00;2107581;27;45673;-73
2022/10/23 00:28:59;;;;;;;;;2.00;2.00;;;;;19.89;62.62;100458.25;2112744;27;45856;-72
2022/10/23 00:30:00;;;;;;;;;2.00;2.00;;;;;19.89;62.46;100466.31;2120445;27;46570;-72
2022/10/23 00:31:02;;;;;;;;;4.00;2.75;;;;;19.89;62.75;100464.50;2118648;27;46117;-73
2022/10/23 00:32:02;;;;;;;;;2.50;2.50;;;;;19.89;62.62;100458.25;2111149;27;45798;-74
2022/10/23 00:33:02;;;;;;;;;2.33;2.33;;;;;19.90;62.26;100462.66;2111901;27;46072;-73
2022/10/23 00:34:06;;;;;;;;;2.00;1.00;;;;;19.90;62.07;100458.13;2118633;27;45635;-73
2022/10/23 00:35:07;;;;;;;;;1.75;1.75;;;;;19.90;62.31;100463.53;2122289;27;46414;-73
2022/10/23 00:36:10;;;;;;;;;2.00;2.00;;;;;19.90;62.63;100458.13;2117291;27;45367;-73
2022/10/23 00:37:10;;;;;;;;;2.00;2.00;;;;;19.91;62.54;100461.69;2113801;27;46146;-74
2022/10/23 00:38:11;;;;;;;;;4.33;3.33;;;;;19.91;61.98;100459.00;2121813;27;45690;-73
2022/10/23 00:39:12;;;;;;;;;2.00;2.00;;;;;19.90;62.30;100452.75;2120535;27;47791;-73
2022/10/23 00:40:12;;;;;;;;;3.00;3.00;;;;;19.92;62.14;100460.72;2122898;27;45853;-73
2022/10/23 00:41:16;;;;;;;;;3.67;3.67;;;;;19.93;62.09;100449.84;2115676;27;46713;-72
2022/10/23 00:42:18;;;;;;;;;1.75;1.75;;;;;19.92;62.47;100453.50;2115655;27;46490;-73
2022/10/23 00:43:23;;;;;;;;;2.00;2.00;;;;;19.94;62.34;100458.78;2120067;27;47231;-73
2022/10/23 00:44:23;;;;;;;;;1.00;0.00;;;;;19.93;62.12;100459.75;2121918;27;45181;-73
2022/10/23 00:45:26;;;;;;;;;2.00;2.00;;;;;19.94;62.11;100456.09;2121363;27;47443;-73
2022/10/23 00:46:27;;;;;;;;;3.50;3.50;;;;;19.94;61.90;100450.72;2113567;27;46733;-72
2022/10/23 00:47:27;;;;;;;;;4.00;4.00;;;;;19.95;61.80;100447.09;2115063;27;46069;-72
2022/10/23 00:48:28;;;;;;;;;2.00;2.00;;;;;19.95;61.85;100447.94;2113856;27;46106;-73
2022/10/23 00:49:28;;;;;;;;;2.67;2.67;;;;;19.96;61.72;100448.81;2114709;27;45692;-73
2022/10/23 00:50:31;;;;;;;;;2.00;2.00;;;;;19.97;61.83;100443.31;2113529;27;46729;-72
2022/10/23 00:51:36;;;;;;;;;1.75;1.75;;;;;19.98;62.05;100439.66;2113865;27;45324;-73
2022/10/23 00:52:43;;;;;;;;;1.50;1.50;;;;;19.99;62.15;100436.00;2117771;27;46872;-72
2022/10/23 00:53:46;;;;;;;;;2.75;1.75;;;;;20.00;62.20;100439.56;2119504;27;45894;-72
2022/10/23 00:54:47;;;;;;;;;2.25;1.75;;;;;20.02;61.38;100442.16;2121990;27;45480;-72
2022/10/23 00:55:52;;;;;;;;;2.00;2.00;;;;;20.01;61.64;100441.28;2111985;27;48321;-73
2022/10/23 00:56:56;;;;;;;;;2.00;2.00;;;;;20.01;61.49;100430.50;2111264;27;46599;-73
2022/10/23 00:57:57;;;;;;;;;1.75;1.75;;;;;20.01;61.58;100426.97;2119167;27;45636;-73
2022/10/23 00:58:57;;;;;;;;;3.00;3.00;;;;;20.01;61.81;100433.22;2115585;27;45183;-72
2022/10/23 00:59:57;;;;;;;;;2.67;2.67;;;;;20.02;61.25;100434.06;2119995;27;47254;-72
2022/10/23 01:00:58;;;;;;;;;1.33;1.33;;;;;20.02;61.37;100431.38;2116254;27;45612;-72
2022/10/23 01:01:59;;;;;;;;;2.33;2.33;;;;;20.02;61.81;100432.25;2116893;27;46370;-74
2022/10/23 01:02:59;;;;;;;;;0.00;0.00;;;;;20.02;61.19;100432.25;2114043;27;46983;-73
2022/10/23 01:04:02;;;;;;;;;3.00;3.00;;;;;20.03;61.34;100425.88;2115621;27;45799;-72
2022/10/23 01:05:02;;;;;;;;;1.25;1.25;;;;;20.04;61.79;100421.34;2119885;27;46652;-72
2022/10/23 01:06:18;;;;;;;;;3.00;3.00;;;;;20.04;61.31;100419.53;2120127;27;45083;-73
2022/10/23 01:07:31;;;;;;;;;3.25;2.00;;;;;20.05;61.35;100409.63;2121568;27;46094;-71
2022/10/23 01:09:10;;;;;;;;;3.00;3.00;;;;;20.06;61.25;100411.34;2113830;27;45229;-72
2022/10/23 01:10:22;;;;;;;;;3.00;2.25;;;;;20.07;61.29;100405.00;2090917;28;46687;-73
2022/10/23 01:11:33;;;;;;;;;2.00;2.00;;;;;20.08;61.28;100404.06;2090978;28;46849;-73
2022/10/23 01:12:44;;;;;;;;;3.00;3.00;;;;;20.07;61.07;100397.78;2096324;28;46231;-73
2022/10/23 01:14:14;;;;;;;;;2.00;2.00;;;;;20.08;61.24;100395.97;2095028;28;46272;-73
2022/10/23 01:15:20;;;;;;;;;1.75;1.75;;;;;20.06;60.98;100393.34;2062517;28;46982;-73
2022/10/23 01:16:59;;;;;;;;;1.50;1.50;;;;;20.06;61.03;100387.09;2062454;28;48157;-72
2022/10/23 01:18:40;;;;;;;;;1.75;1.75;;;;;20.04;61.04;100387.22;2070486;28;47266;-73
2022/10/23 01:20:00;;;;;;;;;2.50;2.25;;;;;20.04;61.31;100387.22;2070843;28;46783;-72
2022/10/23 01:21:41;;;;;;;;;2.25;2.25;;;;;20.04;61.26;100387.22;2070738;28;46669;-73
2022/10/23 01:22:52;;;;;;;;;3.75;2.75;;;;;20.05;60.96;100390.75;2063025;28;45535;-73
2022/10/23 01:24:23;;;;;;;;;4.75;2.75;;;;;20.04;60.96;100383.66;2054682;28;45638;-72
2022/10/23 01:25:31;;;;;;;;;3.00;2.00;;;;;20.04;61.15;100380.94;2053567;28;46555;-72
2022/10/23 01:27:10;;;;;;;;;3.00;2.50;;;;;20.02;61.12;100386.44;2061676;28;46475;-72
2022/10/23 01:28:21;;;;;;;;;1.00;1.00;;;;;20.01;61.19;100376.63;2062391;28;47356;-73
2022/10/23 01:29:35;;;;;;;;;1.00;1.00;;;;;20.02;60.81;100378.38;2062168;28;48008;-72
2022/10/23 01:30:41;;;;;;;;;2.00;2.00;;;;;20.02;60.56;100364.91;2061058;28;45733;-73
2022/10/23 01:31:50;;;;;;;;;1.00;1.00;;;;;20.02;60.76;100362.22;2061918;28;47695;-73
2022/10/23 01:33:00;;;;;;;;;2.50;2.50;;;;;20.01;60.99;100357.78;2062575;28;46901;-72
2022/10/23 01:34:13;;;;;;;;;2.00;2.00;;;;;20.01;61.03;100356.94;2061706;28;46442;-71
2022/10/23 01:35:20;;;;;;;;;2.00;2.00;;;;;20.02;60.36;100350.56;2062695;28;46879;-73
2022/10/23 01:36:25;;;;;;;;;0.25;0.25;;;;;20.01;61.03;100355.09;2062363;28;46027;-72
2022/10/23 01:37:41;;;;;;;;;3.50;1.50;;;;;20.02;60.78;100345.19;2062346;28;48990;-72
2022/10/23 01:38:51;;;;;;;;;2.50;2.50;;;;;20.01;60.92;100338.94;2062530;28;46066;-73
2022/10/23 01:39:56;;;;;;;;;1.00;1.00;;;;;20.01;60.60;100344.31;2053859;28;46514;-73
2022/10/23 01:41:10;;;;;;;;;0.75;0.75;;;;;20.00;60.87;100345.28;2060208;28;45875;-72
2022/10/23 01:42:15;;;;;;;;;1.50;1.50;;;;;19.99;60.89;100338.16;2063140;28;46803;-73
2022/10/23 01:43:21;;;;;;;;;1.50;1.50;;;;;20.00;60.81;100342.59;2061978;28;47468;-72
2022/10/23 01:44:45;;;;;;;;;1.00;1.00;;;;;19.99;60.52;100348.94;2062230;28;46598;-72
2022/10/23 01:45:53;;;;;;;;;3.00;1.75;;;;;19.98;60.81;100348.09;2062139;28;46233;-73
2022/10/23 01:46:56;;;;;;;;;1.00;1.00;;;;;19.98;60.76;100352.59;2062140;28;45904;-73
2022/10/23 01:47:59;;;;;;;;;0.75;0.75;;;;;19.97;60.55;100349.06;2062368;28;45084;-73
2022/10/23 01:49:01;;;;;;;;;1.50;1.50;;;;;19.96;60.80;100350.03;2062079;28;48854;-74
2022/10/23 01:50:05;;;;;;;;;1.00;1.00;;;;;19.95;60.99;100353.69;2062023;28;47747;-75
2022/10/23 01:51:10;;;;;;;;;2.50;2.50;;;;;19.95;60.85;100347.44;2059430;28;45280;-74
2022/10/23 01:52:15;;;;;;;;;2.00;2.00;;;;;19.96;60.96;100355.41;2054529;28;45502;-72
2022/10/23 01:53:18;;;;;;;;;2.25;2.25;;;;;19.95;61.17;100351.00;2065946;28;46683;-73
2022/10/23 01:54:23;;;;;;;;;1.50;1.50;;;;;19.96;61.27;100346.47;2086715;28;46756;-74
2022/10/23 01:55:24;;;;;;;;;3.50;2.00;;;;;19.95;60.79;100355.50;2086785;28;47402;-73
2022/10/23 01:56:32;;;;;;;;;3.00;1.67;;;;;19.95;61.11;100361.75;2088072;28;45841;-73
2022/10/23 01:57:34;;;;;;;;;1.50;1.50;;;;;19.96;60.74;100359.94;2086646;28;46672;-74
2022/10/23 01:58:36;;;;;;;;;2.00;2.00;;;;;19.95;61.34;100353.69;2088114;28;47378;-75
2022/10/23 01:59:43;;;;;;;;;2.00;1.00;;;;;19.95;61.26;100358.22;2099031;27;47629;-74
2022/10/23 02:00:45;;;;;;;;;1.00;1.00;;;;;19.96;61.23;100349.16;2107162;27;46767;-73
2022/10/23 02:01:50;;;;;;;;;3.25;3.25;;;;;19.96;61.14;100344.63;2115284;27;45548;-73
2022/10/23 02:02:52;;;;;;;;;3.75;1.75;;;;;19.97;61.31;100345.50;2115214;27;46554;-73
2022/10/23 02:03:53;;;;;;;;;1.50;1.50;;;;;19.97;60.84;100345.50;2099089;28;45932;-71
2022/10/23 02:05:00;;;;;;;;;1.25;1.25;;;;;19.97;60.96;100343.66;2111911;27;45566;-73
2022/10/23 02:06:01;;;;;;;;;3.00;2.00;;;;;19.97;60.92;100350.88;2120058;27;46013;-73
2022/10/23 02:07:02;;;;;;;;;2.33;2.33;;;;;19.96;61.35;100344.63;2115672;27;45819;-72
2022/10/23 02:08:02;;;;;;;;;2.33;2.33;;;;;19.95;61.16;100340.22;2113452;27;45555;-73
2022/10/23 02:09:04;;;;;;;;;1.33;1.33;;;;;19.96;61.39;100330.31;2116596;27;45754;-73
2022/10/23 02:10:07;;;;;;;;;1.00;1.00;;;;;19.96;60.91;100333.88;2121139;27;46892;-73
2022/10/23 02:11:13;;;;;;;;;2.00;2.00;;;;;19.96;61.03;100328.47;2121491;27;45928;-72
2022/10/23 02:12:32;;;;;;;;;1.75;1.75;;;;;19.96;60.99;100330.31;2121462;27;46887;-74
2022/10/23 02:14:04;;;;;;;;;1.75;1.75;;;;;19.96;61.30;100319.53;2113677;27;45749;-73
2022/10/23 02:15:13;;;;;;;;;2.75;2.75;;;;;19.94;61.52;100308.84;2092269;28;46184;-73
2022/10/23 02:16:24;;;;;;;;;2.25;2.25;;;;;19.94;61.42;100311.53;2092444;28;46079;-71
2022/10/23 02:17:54;;;;;;;;;3.75;3.75;;;;;19.93;61.48;100317.88;2095139;28;46396;-71
2022/10/23 02:19:11;;;;;;;;;2.50;2.50;;;;;19.91;61.21;100310.88;2095341;28;45277;-72
2022/10/23 02:20:26;;;;;;;;;2.50;2.50;;;;;19.90;61.69;100315.41;2093436;28;45599;-72
2022/10/23 02:21:39;;;;;;;;;1.25;1.25;;;;;19.90;61.45;100315.41;2090754;28;46095;-71
2022/10/23 02:22:51;;;;;;;;;1.25;1.25;;;;;19.89;61.38;100310.97;2091021;28;45486;-73
2022/10/23 02:24:01;;;;;;;;;1.25;1.00;;;;;19.89;61.36;100315.50;2086968;28;47251;-73
2022/10/23 02:25:10;;;;;;;;;2.50;2.50;;;;;19.89;61.68;100313.69;2093667;28;45697;-73
2022/10/23 02:26:21;;;;;;;;;2.00;2.00;;;;;19.90;61.82;100315.41;2086883;28;45502;-73
2022/10/23 02:27:43;;;;;;;;;2.00;2.00;;;;;19.89;61.20;100307.44;2083663;28;45787;-71
2022/10/23 02:29:02;;;;;;;;;4.00;3.25;;;;;19.89;61.93;100307.44;2093830;28;45903;-73
2022/10/23 02:30:06;;;;;;;;;4.00;4.00;;;;;19.90;61.93;100303.78;2091223;28;45642;-74
2022/10/23 02:31:11;;;;;;;;;2.25;1.00;;;;;19.90;61.77;100298.38;2092964;28;46957;-73
2022/10/23 02:32:14;;;;;;;;;2.75;2.75;;;;;19.90;61.70;100298.38;2095402;28;46879;-73
2022/10/23 02:33:16;;;;;;;;;2.00;2.00;;;;;19.91;61.66;100297.41;2093080;28;46851;-71
2022/10/23 02:34:17;;;;;;;;;2.50;2.00;;;;;19.90;61.67;100293.00;2091998;28;45138;-72
2022/10/23 02:35:20;;;;;;;;;1.67;1.67;;;;;19.89;62.14;100299.34;2096677;28;45593;-73
2022/10/23 02:36:20;;;;;;;;;1.75;1.75;;;;;19.89;61.77;100285.88;2094254;28;47295;-71
2022/10/23 02:37:20;;;;;;;;;2.00;2.00;;;;;19.89;61.61;100285.88;2096499;28;45982;-72
2022/10/23 02:38:39;;;;;;;;;2.67;2.67;;;;;19.90;61.67;100290.31;2096897;28;45941;-73
2022/10/23 02:39:40;;;;;;;;;2.00;1.00;;;;;19.89;61.68;100289.44;2095483;28;45905;-73
2022/10/23 02:40:44;;;;;;;;;2.00;2.00;;;;;19.89;61.94;100288.56;2095147;28;46255;-73
2022/10/23 02:42:02;;;;;;;;;3.00;3.00;;;;;19.87;62.18;100288.69;2096626;28;45923;-73
2022/10/23 02:43:31;;;;;;;;;2.25;2.25;;;;;19.86;61.83;100281.56;2092408;28;46677;-73
2022/10/23 02:44:45;;;;;;;;;2.25;1.25;;;;;19.86;61.83;100280.72;2095423;28;45447;-73
2022/10/23 02:45:58;;;;;;;;;2.50;2.50;;;;;19.86;62.19;100281.56;2094860;28;46450;-73
2022/10/23 02:47:16;;;;;;;;;3.00;3.00;;;;;19.85;61.81;100279.00;2095481;28;46109;-72
2022/10/23 02:48:20;;;;;;;;;3.25;2.50;;;;;19.85;61.94;100270.91;2096819;28;47156;-73
2022/10/23 02:49:26;;;;;;;;;2.00;2.00;;;;;19.85;62.33;100273.59;2095688;28;45597;-72
2022/10/23 02:50:55;;;;;;;;;5.00;3.00;;;;;19.84;61.91;100269.19;2090382;28;46716;-72
2022/10/23 02:52:16;;;;;;;;;2.50;2.50;;;;;19.81;62.14;100266.69;2095995;27;46366;-72
2022/10/23 02:53:25;;;;;;;;;2.75;2.25;;;;;19.80;62.40;100267.63;2106635;27;46588;-72
2022/10/23 02:54:56;;;;;;;;;2.00;2.00;;;;;19.80;62.25;100263.13;2111832;27;45795;-73
2022/10/23 02:56:09;;;;;;;;;5.25;2.50;;;;;19.78;62.71;100265.06;2114625;27;47066;-73
2022/10/23 02:57:32;;;;;;;;;1.00;1.00;;;;;19.78;62.76;100264.19;2115991;27;45770;-72
2022/10/23 02:58:57;;;;;;;;;2.00;2.00;;;;;19.77;62.80;100263.34;2114323;27;46022;-73
2022/10/23 03:00:14;;;;;;;;;2.50;2.50;;;;;19.77;62.56;100260.63;2120703;27;47095;-72
2022/10/23 03:01:21;;;;;;;;;2.00;2.00;;;;;19.76;62.95;100260.75;2121596;27;48000;-74
2022/10/23 03:02:42;;;;;;;;;2.00;2.00;;;;;19.74;62.62;100258.16;2114852;27;45761;-72
2022/10/23 03:03:56;;;;;;;;;2.50;2.50;;;;;19.73;63.02;100253.75;2114090;27;46670;-73
2022/10/23 03:04:59;;;;;;;;;2.00;2.00;;;;;19.73;63.22;100255.56;2118866;27;46341;-72
2022/10/23 03:05:59;;;;;;;;;2.00;1.25;;;;;19.71;62.48;100250.28;2115868;27;46060;-73
2022/10/23 03:07:00;;;;;;;;;2.33;1.33;;;;;19.69;62.53;100246.81;2116097;27;45329;-72
2022/10/23 03:08:06;;;;;;;;;2.33;2.33;;;;;19.68;62.61;100239.72;2116113;27;45743;-72
2022/10/23 03:09:08;;;;;;;;;2.25;1.25;;;;;19.68;62.74;100247.78;2118542;27;45168;-71
2022/10/23 03:10:09;;;;;;;;;3.00;3.00;;;;;19.65;62.80;100246.16;2109473;27;46339;-72
2022/10/23 03:11:10;;;;;;;;;5.00;5.00;;;;;19.65;62.82;100238.09;2109158;27;46971;-72
2022/10/23 03:12:10;;;;;;;;;2.67;2.67;;;;;19.65;62.98;100230.00;2114954;27;46180;-72
2022/10/23 03:13:11;;;;;;;;;4.00;4.00;;;;;19.65;62.98;100237.22;2117342;27;46719;-73
2022/10/23 03:14:12;;;;;;;;;2.00;2.00;;;;;19.65;63.31;100240.78;2114360;27;46805;-72
2022/10/23 03:15:15;;;;;;;;;2.75;1.50;;;;;19.65;63.43;100234.53;2121028;27;46400;-73
2022/10/23 03:16:15;;;;;;;;;3.75;3.00;;;;;19.64;62.95;100235.50;2111885;27;45751;-73
2022/10/23 03:17:15;;;;;;;;;5.00;3.67;;;;;19.63;62.97;100229.25;2113979;27;45979;-72
2022/10/23 03:18:16;;;;;;;;;3.00;3.00;;;;;19.64;63.19;100224.75;2119938;27;46602;-71
2022/10/23 03:19:16;;;;;;;;;3.00;3.00;;;;;19.64;63.22;100239.06;2121229;27;45373;-73
2022/10/23 03:20:17;;;;;;;;;2.00;2.00;;;;;19.62;63.19;100240.13;2121607;27;45709;-74
2022/10/23 03:21:18;;;;;;;;;3.33;3.33;;;;;19.62;63.11;100229.38;2120806;27;46156;-73
2022/10/23 03:26:12;;;;;;;;;2.25;2.25;;;;;19.59;63.38;100227.75;2113692;27;46485;-73
2022/10/23 03:27:12;;;;;;;;;3.00;3.00;;;;;19.58;63.91;100236.78;2114708;27;45750;-74
2022/10/23 03:28:12;;;;;;;;;2.67;2.67;;;;;19.57;63.71;100226.13;2119010;27;45047;-73
2022/10/23 03:29:12;;;;;;;;;3.00;3.00;;;;;19.56;63.53;100229.75;2120247;27;45121;-73
2022/10/23 03:30:14;;;;;;;;;1.00;1.00;;;;;19.56;63.89;100230.63;2104528;27;46297;-72
2022/10/23 03:31:14;;;;;;;;;5.00;4.00;;;;;19.55;63.65;100222.66;2106653;27;45961;-72
2022/10/23 03:32:15;;;;;;;;;4.00;4.00;;;;;19.55;63.64;100222.66;2121174;27;45943;-72
2022/10/23 03:33:16;;;;;;;;;2.67;2.67;;;;;19.54;63.74;100223.59;2122297;27;45817;-72
2022/10/23 03:34:16;;;;;;;;;3.67;2.67;;;;;19.54;64.08;100212.81;2095395;28;46181;-72
2022/10/23 03:35:16;;;;;;;;;4.67;4.67;;;;;19.54;63.59;100208.31;2095923;28;45776;-73
2022/10/23 03:36:16;;;;;;;;;3.00;3.00;;;;;19.54;64.04;100207.44;2115343;27;45838;-73
2022/10/23 03:37:17;;;;;;;;;4.00;4.00;;;;;19.54;64.26;100196.69;2115311;27;45224;-71
2022/10/23 03:38:18;;;;;;;;;5.00;4.00;;;;;19.55;63.81;100199.28;2122812;27;45570;-72
2022/10/23 03:39:19;;;;;;;;;3.00;3.00;;;;;19.56;63.78;100202.84;2116432;27;46350;-73
2022/10/23 03:40:19;;;;;;;;;2.00;2.00;;;;;19.56;63.96;100206.41;2113658;27;46195;-71
2022/10/23 03:41:19;;;;;;;;;3.67;3.00;;;;;19.56;64.03;100206.41;2117560;27;46507;-72
2022/10/23 03:42:20;;;;;;;;;2.67;2.67;;;;;19.56;64.14;100208.22;2119281;27;45566;-72
2022/10/23 03:43:20;;;;;;;;;3.00;3.00;;;;;19.55;63.91;100214.56;2115588;27;45670;-71
2022/10/23 03:44:20;;;;;;;;;3.67;3.00;;;;;19.54;63.98;100212.81;2112839;27;46680;-73
2022/10/23 03:45:21;;;;;;;;;3.67;3.67;;;;;19.54;64.08;100215.50;2114877;27;45958;-72
2022/10/23 03:46:21;;;;;;;;;3.00;3.00;;;;;19.54;63.92;100210.13;2122295;27;46619;-72
2022/10/23 03:47:22;;;;;;;;;3.00;2.00;;;;;19.52;64.60;100210.25;2121937;27;45511;-72
2022/10/23 03:48:23;;;;;;;;;7.00;3.33;;;;;19.52;63.86;100212.94;2120682;27;45827;-72
2022/10/23 03:49:24;;;;;;;;;3.75;3.75;;;;;19.52;63.97;100212.94;2113773;27;45999;-72
2022/10/23 03:50:24;;;;;;;;;4.00;4.00;;;;;19.52;64.09;100214.75;2114127;27;46136;-74
2022/10/23 03:51:25;;;;;;;;;3.00;3.00;;;;;19.51;64.49;100211.19;2121496;27;46297;-73
2022/10/23 03:52:25;;;;;;;;;3.00;3.00;;;;;19.49;64.31;100210.44;2121913;27;46046;-72
2022/10/23 03:53:25;;;;;;;;;2.33;2.33;;;;;19.49;64.64;100223.03;2118996;27;46224;-71
2022/10/23 03:54:28;;;;;;;;;4.33;3.33;;;;;19.49;64.14;100214.97;2113752;27;45256;-72
2022/10/23 03:55:28;;;;;;;;;3.00;3.00;;;;;19.49;63.95;100213.13;2118298;27;45763;-72
2022/10/23 03:56:29;;;;;;;;;4.00;4.00;;;;;19.51;64.38;100207.66;2122449;27;47023;-73
2022/10/23 03:57:29;;;;;;;;;3.00;3.00;;;;;19.50;64.55;100203.25;2116599;27;47793;-73
2022/10/23 03:58:30;;;;;;;;;3.67;3.33;;;;;19.51;64.33;100199.56;2119705;27;46776;-73
2022/10/23 03:59:30;;;;;;;;;4.00;3.00;;;;;19.51;64.15;100194.19;2108711;27;47019;-73
2022/10/23 04:00:31;;;;;;;;;3.33;3.33;;;;;19.51;64.33;100203.13;2109757;27;45710;-73
2022/10/23 04:01:31;;;;;;;;;2.33;2.33;;;;;19.52;64.25;100212.06;2120870;27;46185;-73
2022/10/23 04:02:31;;;;;;;;;6.00;4.33;;;;;19.50;64.83;100204.09;2114274;27;46033;-72
2022/10/23 04:03:32;;;;;;;;;5.33;4.33;;;;;19.49;64.56;100191.59;2117902;27;45947;-73
2022/10/23 04:04:32;;;;;;;;;5.67;5.00;;;;;19.50;64.18;100193.34;2109444;27;44958;-74
2022/10/23 04:05:32;;;;;;;;;4.33;3.33;;;;;19.52;64.17;100196.78;2111403;27;46339;-75
2022/10/23 04:06:33;;;;;;;;;9.00;7.33;;;;;19.53;64.36;100203.03;2119830;27;46287;-73
2022/10/23 04:07:34;;;;;;;;;4.33;4.33;;;;;19.52;64.36;100215.63;2114064;27;45604;-73
2022/10/23 04:08:34;;;;;;;;;3.67;3.67;;;;;19.52;64.16;100214.75;2120875;27;47817;-73
2022/10/23 04:09:34;;;;;;;;;3.00;3.00;;;;;19.53;64.78;100220.03;2116933;27;46815;-71
2022/10/23 04:10:35;;;;;;;;;4.33;3.67;;;;;19.54;64.70;100223.59;2122079;27;46728;-74
2022/10/23 04:11:35;;;;;;;;;3.00;3.00;;;;;19.54;64.72;100221.75;2107807;27;45985;-71
2022/10/23 04:12:35;;;;;;;;;4.67;3.33;;;;;19.55;64.28;100218.13;2104836;28;45569;-72
2022/10/23 04:13:36;;;;;;;;;4.00;4.00;;;;;19.55;64.32;100210.06;2116674;27;45733;-73
2022/10/23 04:14:36;;;;;;;;;3.33;3.33;;;;;19.55;64.64;100218.13;2113989;27;46376;-74
2022/10/23 04:15:36;;;;;;;;;2.00;2.00;;;;;19.56;64.52;100219.84;2104491;28;46473;-72
2022/10/23 04:16:36;;;;;;;;;3.00;2.33;;;;;19.55;64.09;100217.28;2109295;27;47371;-72
2022/10/23 04:17:37;;;;;;;;;4.67;3.00;;;;;19.55;64.16;100214.56;2120466;27;46567;-73
2022/10/23 04:18:40;;;;;;;;;3.00;3.00;;;;;19.56;64.82;100219.00;2120716;27;47848;-72
2022/10/23 04:19:40;;;;;;;;;4.00;4.00;;;;;19.57;64.73;100220.75;2116892;27;46785;-71
2022/10/23 04:20:41;;;;;;;;;4.67;4.33;;;;;19.56;64.20;100214.47;2113926;27;45866;-72
2022/10/23 04:21:41;;;;;;;;;5.67;5.67;;;;;19.56;64.42;100219.00;2120635;27;46300;-71
2022/10/23 04:22:41;;;;;;;;;4.33;4.33;;;;;19.57;64.27;100218.06;2121299;27;46185;-73
2022/10/23 04:23:42;;;;;;;;;4.00;4.00;;;;;19.57;64.71;100208.16;2116865;27;45193;-72
2022/10/23 04:24:45;;;;;;;;;4.33;4.33;;;;;19.58;64.61;100206.31;2119271;27;45534;-72
2022/10/23 04:25:46;;;;;;;;;5.25;5.25;;;;;19.59;64.67;100203.53;2114847;27;46595;-73
2022/10/23 04:26:46;;;;;;;;;4.00;4.00;;;;;19.58;64.31;100206.31;2118946;27;46570;-72
2022/10/23 04:27:47;;;;;;;;;3.00;2.67;;;;;19.58;64.30;100206.31;2123236;27;46188;-73
2022/10/23 04:28:47;;;;;;;;;4.60;4.60;;;;;19.56;64.51;100209.09;2115205;27;45728;-73
2022/10/23 04:29:48;;;;;;;;;4.00;4.00;;;;;19.57;64.44;100216.22;2118014;27;46041;-73
2022/10/23 04:30:48;;;;;;;;;5.00;4.00;;;;;19.55;64.51;100207.38;2116882;27;47975;-72
2022/10/23 04:31:50;;;;;;;;;4.67;4.00;;;;;19.54;65.15;100216.38;2118119;27;46005;-72
2022/10/23 04:32:51;;;;;;;;;5.60;4.00;;;;;19.55;64.79;100218.13;2108965;27;47071;-72
2022/10/23 04:33:51;;;;;;;;;5.60;5.60;;;;;19.54;64.60;100216.38;2109421;27;47301;-73
2022/10/23 04:34:52;;;;;;;;;4.75;4.25;;;;;19.55;64.50;100215.44;2120592;27;47031;-73
2022/10/23 04:35:52;;;;;;;;;2.33;2.33;;;;;19.57;64.75;100218.06;2115921;27;46394;-71
2022/10/23 04:36:52;;;;;;;;;6.00;6.00;;;;;19.57;64.96;100208.16;2114261;27;46589;-72
2022/10/23 04:37:53;;;;;;;;;5.00;5.00;;;;;19.56;64.64;100213.59;2118857;27;46441;-72
2022/10/23 04:38:53;;;;;;;;;5.00;5.00;;;;;19.56;65.07;100216.31;2120466;27;45771;-72
2022/10/23 04:39:53;;;;;;;;;4.00;4.00;;;;;19.56;64.86;100205.53;2114451;27;45756;-73
2022/10/23 04:40:54;;;;;;;;;4.00;4.00;;;;;19.56;65.10;100211.78;2118832;27;46652;-73
2022/10/23 04:41:54;;;;;;;;;2.67;2.67;;;;;19.56;64.49;100205.53;2113798;27;45714;-73
2022/10/23 04:42:54;;;;;;;;;5.00;5.00;;;;;19.56;65.15;100202.84;2114196;27;46670;-72
2022/10/23 04:43:55;;;;;;;;;4.33;4.33;;;;;19.55;65.12;100201.13;2114899;27;45480;-72
2022/10/23 04:44:55;;;;;;;;;5.33;4.33;;;;;19.55;64.66;100193.91;2095158;28;46289;-72
2022/10/23 04:45:55;;;;;;;;;4.67;4.67;;;;;19.54;64.95;100186.78;2102282;28;46229;-71
2022/10/23 04:46:56;;;;;;;;;4.00;4.00;;;;;19.54;64.74;100183.22;2109476;27;46309;-72
2022/10/23 04:47:56;;;;;;;;;3.00;3.00;;;;;19.54;65.36;100180.53;2111360;27;45430;-72
2022/10/23 04:48:56;;;;;;;;;2.67;2.67;;;;;19.52;65.13;100175.25;2114874;27;45506;-72
2022/10/23 04:49:57;;;;;;;;;5.33;5.33;;;;;19.50;65.33;100171.81;2114976;27;45805;-73
2022/10/23 04:50:59;;;;;;;;;5.00;5.00;;;;;19.51;65.11;100173.53;2122028;27;45523;-72
2022/10/23 04:51:59;;;;;;;;;4.50;3.25;;;;;19.51;65.11;100180.75;2116417;27;46773;-72
2022/10/23 04:52:59;;;;;;;;;4.33;4.33;;;;;19.50;65.03;100182.56;2113488;27;45676;-70
2022/10/23 04:54:00;;;;;;;;;2.00;2.00;;;;;19.50;65.00;100195.16;2109446;27;46380;-72
2022/10/23 04:55:00;;;;;;;;;4.33;4.00;;;;;19.51;64.79;100204.97;2111333;27;45750;-72
2022/10/23 04:56:01;;;;;;;;;4.00;4.00;;;;;19.51;65.03;100208.50;2120477;27;45698;-72
2022/10/23 04:57:01;;;;;;;;;4.33;4.33;;;;;19.50;65.29;100216.69;2118695;27;45426;-73
2022/10/23 04:58:01;;;;;;;;;3.33;3.33;;;;;19.49;64.88;100223.03;2114862;27;47446;-73
2022/10/23 04:59:02;;;;;;;;;5.00;5.00;;;;;19.50;65.08;100230.16;2110841;27;46732;-72
2022/10/23 05:00:06;;;;;;;;;3.33;3.33;;;;;19.48;65.04;100219.50;2118800;27;46047;-75
2022/10/23 05:01:09;;;;;;;;;4.00;4.00;;;;;19.49;65.02;100225.72;2116970;27;46616;-72
2022/10/23 05:02:09;;;;;;;;;4.00;4.00;;;;;19.50;65.31;100232.84;2112269;27;46332;-73
2022/10/23 05:03:09;;;;;;;;;3.00;3.00;;;;;19.51;65.63;100238.13;2108156;27;46891;-73
2022/10/23 05:04:10;;;;;;;;;3.67;3.67;;;;;19.49;65.56;100231.97;2116345;27;46755;-72
2022/10/23 05:05:11;;;;;;;;;4.00;4.00;;;;;19.49;65.67;100236.50;2108160;27;46416;-73